Rockwall, Texas
Current Conditions -  °F | °C
As of 1:55 AM on Friday 19 Dec 2014 (Local Time) from KF46 Reporting Station
Overcast Overcast  
Wind Chill: 42°   Ceiling: 600
Heat Index: 45°   Visibility: 7mi
Dew Point: 44°   Wind: 6mph
Humidity: 95%   Direction: 50°NE
Pressure: 30.16"   Gusts: NA
Location:  32.93°N, 96.46°W
Report Text: KF46 190755Z AUTO 05005KT 7SM OVC006 07/07 A3016 RMK AO2 T00740067
Loading
Personal Weather Stations






























Interactive Weather Map New forecast layout! Learn more

10-Day Weather Forecast

Advertisements
Track Severe Weather on mobile